DFFD/OUA METAR and TAF weather

Enter ICAO airport designator
Station Type Date Time Source
DFFD METAR 2022/01/19 20:00 UTC NOAA

DFFD 192000Z 03005KT CAVOK 22/M02 Q1016 NOSIG


Station Type Date Time Source
DFFD Decoded METAR 2022/01/19 20:00 UTC NOAA

Ouagadougou, Burkina Faso (DFFD) 12-21N 001-31W 306M
Jan 19, 2022 - 03:00 PM EST / 2022.01.19 2000 UTC
Wind: from the NNE (030 degrees) at 6 MPH (5 KT):0
Visibility: greater than 7 mile(s):0
Temperature: 71 F (22 C)
Dew Point: 28 F (-2 C)
Relative Humidity: 19%
Pressure (altimeter): 30.00 in. Hg (1016 hPa)
ob: DFFD 192000Z 03005KT CAVOK 22/M02 Q1016 NOSIG
cycle: 20

Station Type Date Time Source
DFFD TAF 2022/01/19 18:21 UTC NOAA

TAF TAF DFFD 191700Z 1918/2024 04010G20KT 8000 NSC
BECMG 2006/2008 3500 DU

Example: see airport list